Southampton, New Jersey
Current Conditions -  °F | °C
As of 9:54 PM on Monday 26 Jan 2015 (Local Time) from KVAY Reporting Station
Overcast Overcast  
Wind Chill: 15°   Ceiling: 1500
Heat Index: 27°   Visibility: 9mi
Dew Point: 22°   Wind: 16mph
Humidity: 81%   Direction: 30°NNE
Pressure: 29.71"   Gusts: 23mph
Location:  39.7955°N, 74.6301°W
Report Text: KVAY 270254Z AUTO 03014G20KT 9SM OVC015 M03/M06 A2971 RMK AO2 SLP060 60000 T10281056 58014
Loading
Personal Weather Stations






























Interactive Weather Map New forecast layout! Learn more

10-Day Weather Forecast

Advertisements
Track Severe Weather on mobile